Time;durP1;ratioP1;P1;durP2;ratioP2;P2;SDS_P1;SDS_P2;PMS_P1;PMS_P2;Temp;Humidity;BMP_temperature;BMP_pressure;BME280_temperature;BME280_humidity;BME280_pressure;Samples;Min_cycle;Max_cycle;Signal;HPM_P1;HPM_P2
2023/01/22 00:01:15;;;;;;;4.60;4.20;;;;;;;-0.83;100.00;99221.78;15303912;19;20021;-78
2023/01/22 00:06:40;;;;;;;5.53;4.72;;;;;;;-0.82;100.00;99230.56;15294344;19;20011;-78
2023/01/22 00:12:07;;;;;;;4.80;4.40;;;;;;;-0.81;100.00;99232.28;15297995;19;20034;-78
2023/01/22 00:17:36;;;;;;;4.25;3.50;;;;;;;-0.84;100.00;99230.66;15293493;19;20019;-80
2023/01/22 00:23:02;;;;;;;4.97;4.50;;;;;;;-0.84;100.00;99235.94;15293919;19;20024;-78
2023/01/22 00:28:29;;;;;;;3.83;3.53;;;;;;;-0.69;100.00;99228.22;15295380;19;20022;-82
2023/01/22 00:33:57;;;;;;;5.50;5.00;;;;;;;-0.65;100.00;99240.38;15303491;19;20461;-80
2023/01/22 00:39:22;;;;;;;5.22;4.72;;;;;;;-0.62;100.00;99235.81;15292676;19;20373;-81
2023/01/22 00:44:49;;;;;;;4.55;4.15;;;;;;;-0.62;100.00;99238.44;15298935;19;20066;-80
2023/01/22 00:50:18;;;;;;;5.55;4.95;;;;;;;-0.59;100.00;99239.25;15300294;19;20089;-82
2023/01/22 00:55:52;;;;;;;5.88;5.28;;;;;;;-0.58;100.00;99239.16;15291475;19;20014;-82
2023/01/22 01:01:19;;;;;;;6.35;5.75;;;;;;;-0.57;100.00;99240.03;15294978;19;20528;-82
2023/01/22 01:06:46;;;;;;;5.43;4.93;;;;;;;-0.53;100.00;99237.19;15325395;19;20495;-82
2023/01/22 01:12:11;;;;;;;5.35;4.82;;;;;;;-0.51;100.00;99235.31;15323681;19;20022;-82
2023/01/22 01:17:37;;;;;;;4.78;4.38;;;;;;;-0.57;100.00;99234.75;15327664;19;20007;-79
2023/01/22 01:23:04;;;;;;;4.53;4.13;;;;;;;-0.56;100.00;99228.53;15329323;19;20011;-79
2023/01/22 01:28:29;;;;;;;4.63;4.22;;;;;;;-0.56;100.00;99231.16;15300370;19;20568;-80
2023/01/22 01:33:55;;;;;;;5.35;4.93;;;;;;;-0.52;100.00;99227.44;15318061;19;20033;-80
2023/01/22 01:39:23;;;;;;;5.50;5.10;;;;;;;-0.54;100.00;99221.38;15321899;19;20023;-82
2023/01/22 01:44:51;;;;;;;4.57;4.18;;;;;;;-0.56;100.00;99226.72;15321453;19;20006;-82
2023/01/22 01:50:16;;;;;;;5.30;4.80;;;;;;;-0.57;100.00;99221.50;15331486;19;20262;-79
2023/01/22 01:55:44;;;;;;;5.53;5.03;;;;;;;-0.58;100.00;99225.94;15317916;19;20010;-81
2023/01/22 02:01:13;;;;;;;5.90;5.35;;;;;;;-0.57;100.00;99227.66;15322798;19;20003;-82
2023/01/22 02:06:39;;;;;;;5.95;5.38;;;;;;;-0.56;100.00;99233.81;15324734;19;20010;-82
2023/01/22 02:12:08;;;;;;;5.68;5.18;;;;;;;-0.55;100.00;99246.13;15322044;19;20018;-80
2023/01/22 02:17:34;;;;;;;6.25;5.70;;;;;;;-0.52;100.00;99245.97;15322038;19;20034;-81
2023/01/22 02:23:02;;;;;;;6.20;5.70;;;;;;;-0.57;100.00;99251.47;15347678;19;20010;-81
2023/01/22 02:28:28;;;;;;;5.97;5.45;;;;;;;-0.57;100.00;99253.28;15328447;19;20022;-82
2023/01/22 02:33:53;;;;;;;6.10;5.60;;;;;;;-0.56;100.00;99263.78;15314040;19;20642;-81
2023/01/22 02:39:21;;;;;;;5.22;4.82;;;;;;;-0.53;100.00;99268.09;15318902;19;20038;-81
2023/01/22 02:44:48;;;;;;;5.10;4.70;;;;;;;-0.54;100.00;99263.72;15321743;19;20015;-81
2023/01/22 02:50:21;;;;;;;5.03;4.63;;;;;;;-0.52;100.00;99257.44;15325053;19;20022;-82
2023/01/22 02:55:49;;;;;;;5.75;5.25;;;;;;;-0.55;100.00;99256.72;15320005;19;20052;-81
2023/01/22 03:01:20;;;;;;;5.30;4.90;;;;;;;-0.56;100.00;99252.34;15327608;19;20018;-81
2023/01/22 03:06:46;;;;;;;4.70;4.30;;;;;;;-0.54;100.00;99247.84;15328595;19;20555;-82
2023/01/22 03:12:15;;;;;;;4.43;4.10;;;;;;;-0.56;100.00;99242.59;15334052;19;20018;-82
2023/01/22 03:23:17;;;;;;;5.80;5.30;;;;;;;-0.53;100.00;99241.63;15329248;19;20071;-83
2023/01/22 03:28:45;;;;;;;5.63;5.18;;;;;;;-0.50;100.00;99241.47;15324575;19;20018;-80
2023/01/22 03:34:09;;;;;;;4.60;4.20;;;;;;;-0.50;100.00;99238.81;15314160;19;20042;-80
2023/01/22 03:39:37;;;;;;;4.93;4.53;;;;;;;-0.52;100.00;99238.03;15297746;19;20026;-83
2023/01/22 03:45:17;;;;;;;5.00;4.60;;;;;;;-0.54;100.00;99239.91;15297967;19;20250;-82
2023/01/22 03:50:42;;;;;;;5.30;4.90;;;;;;;-0.51;100.00;99240.63;15295616;19;20365;-83
2023/01/22 03:56:08;;;;;;;5.00;4.60;;;;;;;-0.56;100.00;99249.69;15295659;19;20021;-82
2023/01/22 04:01:36;;;;;;;4.30;4.00;;;;;;;-0.56;100.00;99257.63;15300326;19;20034;-82
2023/01/22 04:07:03;;;;;;;5.25;4.85;;;;;;;-0.54;100.00;99272.50;15286665;19;20014;-83
2023/01/22 04:12:28;;;;;;;4.20;3.90;;;;;;;-0.56;100.00;99257.63;15297831;19;20029;-79
2023/01/22 04:17:58;;;;;;;4.22;3.92;;;;;;;-0.56;100.00;99271.72;15289578;19;20094;-82
2023/01/22 04:23:43;;;;;;;3.90;3.60;;;;;;;-0.56;100.00;99276.16;15287259;19;20019;-86
2023/01/22 04:29:08;;;;;;;3.00;2.80;;;;;;;-0.63;100.00;99279.06;15289311;19;20014;-81
2023/01/22 04:34:35;;;;;;;3.20;2.90;;;;;;;-0.58;100.00;99291.25;15287615;19;20019;-83
2023/01/22 04:40:07;;;;;;;3.00;2.80;;;;;;;-0.62;100.00;99288.75;15282057;19;20435;-81
2023/01/22 04:45:33;;;;;;;3.25;2.95;;;;;;;-0.62;100.00;99290.53;15284268;19;20035;-83
2023/01/22 04:51:00;;;;;;;3.63;3.33;;;;;;;-0.66;100.00;99286.31;15291370;19;20011;-80
2023/01/22 04:56:25;;;;;;;4.35;4.00;;;;;;;-0.66;100.00;99299.53;15285750;19;20023;-84
2023/01/22 05:01:51;;;;;;;4.07;3.72;;;;;;;-0.69;100.00;99300.53;15293019;19;20018;-84
2023/01/22 05:07:19;;;;;;;4.10;3.70;;;;;;;-0.70;100.00;99309.41;15289820;19;20488;-84
2023/01/22 05:12:45;;;;;;;4.38;3.40;;;;;;;-0.69;100.00;99313.78;15287899;19;20020;-81
2023/01/22 05:18:17;;;;;;;4.20;3.90;;;;;;;-0.69;100.00;99324.34;15287165;19;20512;-85
2023/01/22 05:29:25;;;;;;;3.70;3.40;;;;;;;-0.68;100.00;99328.72;15283586;19;20037;-81
2023/01/22 05:35:13;;;;;;;3.97;3.63;;;;;;;-0.65;100.00;99333.00;15290706;19;20035;-80
2023/01/22 05:40:44;;;;;;;3.80;3.50;;;;;;;-0.63;100.00;99339.09;15290826;19;20014;-83
2023/01/22 05:46:20;;;;;;;4.10;3.80;;;;;;;-0.68;100.00;99336.66;15291745;19;20334;-77
2023/01/22 05:52:03;;;;;;;4.22;3.92;;;;;;;-0.69;100.00;99347.28;15289506;19;20017;-81
2023/01/22 05:57:34;;;;;;;4.30;3.90;;;;;;;-0.71;100.00;99347.38;15288180;19;20011;-78
2023/01/22 06:03:02;;;;;;;4.93;4.50;;;;;;;-0.71;100.00;99354.47;15283795;19;20031;-81
2023/01/22 06:08:34;;;;;;;;;;;;;;;-0.72;100.00;99352.75;15293894;19;20018;-78
2023/01/22 06:14:02;;;;;;;4.82;4.43;;;;;;;-0.73;100.00;99343.94;15322792;19;19971;-80
2023/01/22 06:19:28;;;;;;;4.57;4.18;;;;;;;-0.76;100.00;99346.69;15277853;19;20056;-81
2023/01/22 06:24:53;;;;;;;5.47;4.97;;;;;;;-0.77;100.00;99350.31;15280053;19;20011;-82
2023/01/22 06:30:40;;;;;;;6.45;5.88;;;;;;;-0.77;100.00;99360.88;15284892;19;20545;-79
2023/01/22 06:36:06;;;;;;;6.60;6.00;;;;;;;-0.79;100.00;99368.03;15298236;19;20045;-78
2023/01/22 06:41:31;;;;;;;7.40;6.70;;;;;;;-0.79;100.00;99370.69;15299533;19;20007;-82
2023/01/22 06:47:02;;;;;;;7.78;6.97;;;;;;;-0.81;100.00;99376.00;15280624;19;20031;-79
2023/01/22 06:52:27;;;;;;;7.80;7.10;;;;;;;-0.80;100.00;99383.03;15296331;19;20014;-82
2023/01/22 06:57:52;;;;;;;7.10;6.40;;;;;;;-0.79;100.00;99387.41;15288236;19;20003;-79
2023/01/22 07:03:19;;;;;;;7.43;6.57;;;;;;;-0.81;100.00;99396.34;15290531;19;20502;-79
2023/01/22 07:08:45;;;;;;;7.40;6.70;;;;;;;-0.79;100.00;99407.72;15289391;19;20014;-77
2023/01/22 07:14:11;;;;;;;7.90;7.10;;;;;;;-0.80;100.00;99413.94;15292083;19;20137;-79
2023/01/22 07:19:56;;;;;;;8.13;7.32;;;;;;;-0.80;100.00;99424.50;15278953;19;20019;-80
2023/01/22 07:25:21;;;;;;;6.78;6.18;;;;;;;-0.79;100.00;99427.09;15291991;19;20078;-81
2023/01/22 07:30:47;;;;;;;7.50;6.68;;;;;;;-0.77;100.00;99429.69;15301018;19;20018;-79
2023/01/22 07:36:16;;;;;;;5.90;5.40;;;;;;;-0.75;100.00;99443.69;15291052;19;20017;-80
2023/01/22 07:41:41;;;;;;;6.05;5.45;;;;;;;-0.76;100.00;99443.75;15292113;19;20035;-79
2023/01/22 07:47:06;;;;;;;6.65;6.05;;;;;;;-0.75;100.00;99446.34;15308853;19;20018;-80
2023/01/22 07:52:34;;;;;;;6.85;6.15;;;;;;;-0.74;100.00;99457.78;15318072;19;20018;-78
2023/01/22 07:58:07;;;;;;;7.25;6.55;;;;;;;-0.72;100.00;99475.31;15310660;19;20011;-81
2023/01/22 08:03:41;;;;;;;6.95;6.25;;;;;;;-0.70;100.00;99473.47;15287854;19;20010;-82
2023/01/22 08:09:14;;;;;;;6.65;6.00;;;;;;;-0.69;100.00;99475.19;15302097;19;20354;-84
2023/01/22 08:14:39;;;;;;;7.88;6.30;;;;;;;-0.69;100.00;99472.56;15313024;19;20010;-81
2023/01/22 08:20:05;;;;;;;7.93;7.13;;;;;;;-0.69;100.00;99472.56;15301889;19;20383;-80
2023/01/22 08:25:33;;;;;;;10.65;6.65;;;;;;;-0.64;100.00;99480.31;15294882;19;20014;-79
2023/01/22 08:30:58;;;;;;;8.10;7.30;;;;;;;-0.63;100.00;99495.25;15300980;19;20014;-81
2023/01/22 08:36:33;;;;;;;8.75;7.82;;;;;;;-0.61;100.00;99493.41;15293264;19;20034;-82
2023/01/22 08:42:00;;;;;;;7.95;7.22;;;;;;;-0.57;100.00;99496.78;15288393;19;20018;-80
2023/01/22 08:47:26;;;;;;;7.80;7.00;;;;;;;-0.58;100.00;99497.72;15286242;19;20504;-81
2023/01/22 08:52:50;;;;;;;8.32;7.50;;;;;;;-0.53;100.00;99501.88;15279380;19;20342;-81
2023/01/22 08:58:19;;;;;;;10.93;7.72;;;;;;;-0.50;100.00;99506.19;15279698;19;20417;-79
2023/01/22 09:03:43;;;;;;;15.95;7.50;;;;;;;-0.50;100.00;99511.47;15290268;19;20363;-81
2023/01/22 09:09:08;;;;;;;9.10;6.90;;;;;;;-0.50;100.00;99522.94;15295201;19;20023;-79
2023/01/22 09:14:36;;;;;;;14.15;8.52;;;;;;;-0.51;100.00;99529.16;15288056;19;20017;-77
2023/01/22 09:20:01;;;;;;;19.08;7.97;;;;;;;-0.51;100.00;99531.81;15286270;19;20014;-78
2023/01/22 09:25:28;;;;;;;16.08;8.60;;;;;;;-0.51;100.00;99541.53;15289315;19;20581;-79
2023/01/22 09:30:55;;;;;;;16.48;9.20;;;;;;;-0.49;100.00;99539.69;15286559;19;20021;-81
2023/01/22 09:36:23;;;;;;;10.07;7.63;;;;;;;-0.50;100.00;99545.91;15291721;19;20010;-78
2023/01/22 09:41:54;;;;;;;10.02;7.75;;;;;;;-0.48;100.00;99549.34;15300052;19;20074;-78
2023/01/22 09:47:24;;;;;;;9.73;8.73;;;;;;;-0.43;100.00;99563.25;15344036;19;20022;-77
2023/01/22 09:52:53;;;;;;;8.07;7.18;;;;;;;-0.44;100.00;99548.31;15301353;19;20037;-80
2023/01/22 09:58:22;;;;;;;9.00;8.10;;;;;;;-0.38;100.00;99557.78;15294868;19;20007;-80
2023/01/22 10:03:55;;;;;;;8.02;7.22;;;;;;;-0.35;100.00;99557.63;15290578;19;20007;-77
2023/01/22 10:09:23;;;;;;;7.20;6.60;;;;;;;-0.32;100.00;99563.69;15287441;19;20019;-81
2023/01/22 10:14:48;;;;;;;6.55;5.60;;;;;;;-0.26;100.00;99556.38;15291520;19;20010;-80
2023/01/22 10:20:20;;;;;;;5.50;5.00;;;;;;;-0.22;100.00;99555.34;15282789;19;20403;-80
2023/01/22 10:25:46;;;;;;;4.78;4.38;;;;;;;-0.19;100.00;99536.69;15288971;19;20025;-79
2023/01/22 10:31:10;;;;;;;4.60;4.20;;;;;;;-0.19;100.00;99539.34;15285448;19;20006;-77
2023/01/22 10:36:38;;;;;;;4.78;4.38;;;;;;;-0.12;100.00;99539.94;15288061;19;20037;-78
2023/01/22 10:42:09;;;;;;;4.88;4.38;;;;;;;-0.09;100.00;99543.31;15289975;19;20007;-78
2023/01/22 10:47:34;;;;;;;4.15;3.85;;;;;;;-0.07;100.00;99541.47;15286173;19;20014;-78
2023/01/22 10:53:03;;;;;;;4.40;4.00;;;;;;;-0.02;100.00;99528.84;15287565;19;20022;-80
2023/01/22 10:58:33;;;;;;;5.55;5.05;;;;;;;-0.01;100.00;99522.63;15291218;19;20059;-81
2023/01/22 11:03:57;;;;;;;5.18;4.68;;;;;;;0.02;100.00;99520.78;15285389;19;20006;-77
2023/01/22 11:09:30;;;;;;;4.68;4.28;;;;;;;0.03;100.00;99519.84;15287870;19;20014;-78
2023/01/22 11:14:58;;;;;;;4.75;4.30;;;;;;;0.03;100.00;99509.25;15290708;19;20190;-79
2023/01/22 11:20:28;;;;;;;6.05;4.85;;;;;;;0.00;100.00;99515.56;15304944;19;20062;-81
2023/01/22 11:26:04;;;;;;;6.03;5.07;;;;;;;0.01;100.00;99513.75;15309467;19;20018;-77
2023/01/22 11:31:41;;;;;;;5.75;5.25;;;;;;;0.01;100.00;99524.34;15320213;19;20014;-79
2023/01/22 11:37:12;;;;;;;5.32;4.82;;;;;;;0.04;100.00;99513.63;15308874;19;20705;-80
2023/01/22 11:42:58;;;;;;;6.13;5.53;;;;;;;0.02;100.00;99518.13;15312281;19;20006;-81
2023/01/22 11:48:39;;;;;;;5.72;5.22;;;;;;;0.06;100.00;99517.06;15305568;19;20029;-80
2023/01/22 11:54:31;;;;;;;7.45;5.93;;;;;;;0.07;100.00;99516.13;15295912;19;20019;-80
2023/01/22 12:00:35;;;;;;;6.78;6.18;;;;;;;-0.03;100.00;99534.22;15291918;19;20011;-76
2023/01/22 12:06:11;;;;;;;8.07;6.72;;;;;;;-0.09;100.00;99534.47;15298683;19;20018;-79
2023/01/22 12:11:53;;;;;;;13.32;7.97;;;;;;;-0.16;100.00;99520.63;15284612;19;20022;-78
2023/01/22 12:17:37;;;;;;;10.23;7.60;;;;;;;-0.13;100.00;99527.59;15296732;19;20018;-81
2023/01/22 12:23:06;;;;;;;9.75;6.80;;;;;;;-0.15;100.00;99538.25;15296176;19;20011;-78
2023/01/22 12:28:37;;;;;;;12.35;6.80;;;;;;;-0.19;100.00;99553.41;15278387;19;20087;-79
2023/01/22 12:34:09;;;;;;;11.70;7.53;;;;;;;-0.19;100.00;99548.13;15286052;19;20011;-80
2023/01/22 12:39:38;;;;;;;11.02;7.90;;;;;;;-0.19;100.00;99557.88;15287062;19;20033;-80
2023/01/22 12:45:11;;;;;;;19.30;8.13;;;;;;;-0.22;100.00;99558.84;15292952;19;20029;-78
2023/01/22 12:50:57;;;;;;;15.88;7.38;;;;;;;-0.25;100.00;99556.34;15284808;19;20014;-79
2023/01/22 12:56:31;;;;;;;8.23;7.32;;;;;;;-0.25;100.00;99555.47;15288716;19;20015;-78
2023/01/22 13:02:07;;;;;;;8.63;7.25;;;;;;;-0.23;100.00;99557.13;15293188;19;20033;-79
2023/01/22 13:07:39;;;;;;;7.30;6.60;;;;;;;-0.25;100.00;99548.41;15289618;19;20028;-78
2023/01/22 13:13:08;;;;;;;15.43;7.32;;;;;;;-0.06;100.00;99553.75;15294012;19;20077;-79
2023/01/22 13:18:41;;;;;;;9.60;7.90;;;;;;;0.05;100.00;99557.75;15288009;19;20017;-80
2023/01/22 13:24:11;;;;;;;11.30;7.93;;;;;;;0.12;100.00;99567.13;15283839;19;20010;-78
2023/01/22 13:29:40;;;;;;;14.85;7.93;;;;;;;0.04;100.00;99563.97;15301215;19;20014;-76
2023/01/22 13:35:11;;;;;;;20.48;8.05;;;;;;;-0.08;100.00;99560.91;15290922;19;20015;-79
2023/01/22 13:41:00;;;;;;;26.25;9.15;;;;;;;-0.17;100.00;99571.88;15288160;19;20010;-81
2023/01/22 13:46:31;;;;;;;18.90;8.43;;;;;;;-0.21;100.00;99567.66;15290301;19;20451;-81
2023/01/22 13:51:58;;;;;;;16.33;8.95;;;;;;;-0.21;100.00;99567.66;15298663;19;20022;-78
2023/01/22 13:57:30;;;;;;;15.15;9.40;;;;;;;-0.25;100.00;99569.59;15289221;19;20358;-81
2023/01/22 14:02:56;;;;;;;31.85;9.85;;;;;;;-0.29;100.00;99572.44;15291595;19;20037;-79
2023/01/22 14:08:22;;;;;;;39.60;11.55;;;;;;;-0.29;100.00;99575.94;14771780;19;9999896;-76
2023/01/22 14:13:52;;;;;;;21.05;12.70;;;;;;;-0.33;100.00;99590.22;15292661;19;20013;-80
2023/01/22 14:19:16;;;;;;;41.78;13.57;;;;;;;-0.38;100.00;99590.41;15271343;19;20102;-76
2023/01/22 14:24:41;;;;;;;45.60;14.65;;;;;;;-0.41;100.00;99606.41;15290667;19;20022;-78
2023/01/22 14:30:08;;;;;;;32.30;15.38;;;;;;;-0.42;100.00;99607.34;15291880;19;20021;-79
2023/01/22 14:35:34;;;;;;;23.45;15.00;;;;;;;-0.46;100.00;99608.41;15290171;19;20022;-78
2023/01/22 14:40:59;;;;;;;19.83;13.55;;;;;;;-0.48;100.00;99618.19;15298312;19;20692;-80
2023/01/22 14:46:27;;;;;;;22.15;16.17;;;;;;;-0.49;100.00;99611.16;15290365;19;20034;-77
2023/01/22 14:51:51;;;;;;;19.00;15.48;;;;;;;-0.49;100.00;99629.69;15289448;19;20532;-79
2023/01/22 14:57:16;;;;;;;16.45;13.65;;;;;;;-0.52;100.00;99624.50;15297253;19;20010;-79
2023/01/22 15:02:55;;;;;;;15.52;13.40;;;;;;;-0.50;100.00;99623.53;15303677;19;20037;-79
2023/01/22 15:08:20;;;;;;;13.70;11.82;;;;;;;-0.53;100.00;99622.81;15291927;19;20010;-78
2023/01/22 15:13:44;;;;;;;15.05;13.27;;;;;;;-0.52;100.00;99630.69;15299328;19;20853;-79
2023/01/22 15:19:13;;;;;;;20.38;15.13;;;;;;;-0.52;100.00;99637.75;15300111;19;20121;-78
2023/01/22 15:24:42;;;;;;;14.43;13.00;;;;;;;-0.56;100.00;99634.38;15285958;19;20011;-79
2023/01/22 15:30:14;;;;;;;14.93;13.35;;;;;;;-0.55;100.00;99636.09;15296545;19;20014;-78
2023/01/22 15:35:47;;;;;;;14.70;13.30;;;;;;;-0.55;100.00;99636.09;15292168;19;20575;-78
2023/01/22 15:41:22;;;;;;;12.45;11.25;;;;;;;-0.55;100.00;99632.59;15291648;19;20054;-78
2023/01/22 15:46:48;;;;;;;12.30;11.00;;;;;;;-0.58;100.00;99630.91;15296409;19;20037;-80
2023/01/22 15:52:16;;;;;;;12.77;11.10;;;;;;;-0.56;100.00;99628.22;15297510;19;20031;-79
2023/01/22 15:57:41;;;;;;;12.38;11.18;;;;;;;-0.58;100.00;99620.31;15285123;19;20013;-78
2023/01/22 16:03:13;;;;;;;12.10;10.90;;;;;;;-0.57;100.00;99629.13;15286542;19;20018;-81
2023/01/22 16:08:44;;;;;;;12.57;11.30;;;;;;;-0.58;100.00;99632.72;15284219;19;20025;-79
2023/01/22 16:14:09;;;;;;;11.27;10.07;;;;;;;-0.60;100.00;99639.84;15291534;19;20015;-78
2023/01/22 16:19:34;;;;;;;13.18;11.45;;;;;;;-0.60;100.00;99642.50;15293359;19;20042;-80
2023/01/22 16:25:01;;;;;;;13.88;12.38;;;;;;;-0.62;100.00;99642.56;15292438;19;20589;-78
2023/01/22 16:30:27;;;;;;;15.20;13.45;;;;;;;-0.64;100.00;99641.75;15289559;19;20006;-77
2023/01/22 16:36:08;;;;;;;19.17;16.05;;;;;;;-0.63;100.00;99639.03;15291413;19;20045;-79
2023/01/22 16:47:18;;;;;;;21.70;17.95;;;;;;;-0.65;100.00;99647.97;15288545;19;20283;-79
2023/01/22 16:52:43;;;;;;;21.95;18.30;;;;;;;-0.64;100.00;99655.84;15297087;19;20014;-80
2023/01/22 16:58:19;;;;;;;22.35;18.58;;;;;;;-0.66;100.00;99667.41;15288704;19;20350;-83
2023/01/22 17:03:45;;;;;;;19.70;16.58;;;;;;;-0.66;100.00;99664.75;15296941;19;20695;-84
2023/01/22 17:09:21;;;;;;;23.60;18.70;;;;;;;-0.66;100.00;99668.28;15345889;19;20006;-82
2023/01/22 17:14:56;;;;;;;22.98;18.55;;;;;;;-0.67;100.00;99678.91;15304151;19;20018;-85
2023/01/22 17:20:23;;;;;;;25.98;20.48;;;;;;;-0.68;100.00;99683.38;15278704;19;20014;-83
2023/01/22 17:25:48;;;;;;;25.20;20.83;;;;;;;-0.67;100.00;99698.31;15286766;19;20385;-80
2023/01/22 17:31:20;;;;;;;25.67;19.92;;;;;;;-0.68;100.00;99703.66;15282783;19;20010;-85
2023/01/22 17:36:45;;;;;;;22.92;18.42;;;;;;;-0.70;100.00;99716.97;15292016;19;20006;-77
2023/01/22 17:42:11;;;;;;;22.70;17.60;;;;;;;-0.67;100.00;99727.44;15284733;19;20086;-83
2023/01/22 17:47:39;;;;;;;25.20;19.10;;;;;;;-0.68;100.00;99741.59;15289255;19;20019;-80
2023/01/22 17:53:03;;;;;;;36.88;28.27;;;;;;;-0.68;100.00;99748.66;15277528;19;20070;-80
2023/01/22 17:58:28;;;;;;;29.55;21.38;;;;;;;-0.66;100.00;99760.94;15284175;19;20048;-78
2023/01/22 18:03:56;;;;;;;34.45;22.60;;;;;;;-0.68;100.00;99768.06;15276084;19;20027;-79
2023/01/22 18:09:22;;;;;;;33.05;22.73;;;;;;;-0.66;100.00;99762.69;15281108;19;20084;-78
2023/01/22 18:14:47;;;;;;;23.80;18.85;;;;;;;-0.64;100.00;99764.34;15274866;19;20476;-80
2023/01/22 18:20:15;;;;;;;20.10;15.00;;;;;;;-0.62;100.00;99775.75;15277291;19;20006;-81
2023/01/22 18:25:39;;;;;;;23.75;17.75;;;;;;;-0.60;100.00;99782.78;15295858;19;20023;-76
2023/01/22 18:31:06;;;;;;;20.33;15.27;;;;;;;-0.59;100.00;99781.88;15308878;19;20448;-78
2023/01/22 18:36:37;;;;;;;18.55;14.70;;;;;;;-0.60;100.00;99788.06;15309939;19;20542;-83
2023/01/22 18:42:02;;;;;;;16.90;13.38;;;;;;;-0.59;100.00;99789.81;15305876;19;20010;-82
2023/01/22 18:47:26;;;;;;;17.23;13.55;;;;;;;-0.59;100.00;99787.16;15303558;19;20037;-78
2023/01/22 18:52:54;;;;;;;15.45;12.45;;;;;;;-0.56;100.00;99801.13;15298903;19;20074;-81
2023/01/22 18:58:29;;;;;;;16.45;12.48;;;;;;;-0.55;100.00;99800.22;15293377;19;20020;-81
2023/01/22 19:03:58;;;;;;;14.13;11.93;;;;;;;-0.57;100.00;99804.69;15299166;19;20050;-79
2023/01/22 19:09:27;;;;;;;11.98;10.70;;;;;;;-0.58;100.00;99805.63;15285525;19;20333;-79
2023/01/22 19:14:52;;;;;;;13.40;12.00;;;;;;;-0.58;100.00;99805.63;15298339;19;20007;-81
2023/01/22 19:20:27;;;;;;;14.15;12.65;;;;;;;-0.58;100.00;99807.41;15302611;19;20041;-83
2023/01/22 19:26:10;;;;;;;16.63;14.88;;;;;;;-0.60;100.00;99807.50;15302756;19;20011;-82
2023/01/22 19:31:37;;;;;;;12.30;11.05;;;;;;;-0.60;100.00;99811.91;15308649;19;20006;-81
2023/01/22 19:37:05;;;;;;;10.70;9.70;;;;;;;-0.62;100.00;99810.16;15289707;19;20010;-80
2023/01/22 19:42:41;;;;;;;10.60;9.52;;;;;;;-0.59;100.00;99822.44;15282730;19;20027;-79
2023/01/22 19:48:08;;;;;;;8.15;7.35;;;;;;;-0.60;100.00;99822.50;15291502;19;20020;-79
2023/01/22 19:53:32;;;;;;;10.70;9.65;;;;;;;-0.60;100.00;99822.50;15297485;19;20026;-79
2023/01/22 19:59:07;;;;;;;11.75;9.80;;;;;;;-0.56;100.00;99826.75;15288118;19;20015;-83
2023/01/22 20:04:36;;;;;;;11.85;10.63;;;;;;;-0.50;100.00;99824.75;15297984;19;20421;-82
2023/01/22 20:10:04;;;;;;;8.90;7.70;;;;;;;-0.49;100.00;99831.78;15297396;19;20041;-83
2023/01/22 20:15:31;;;;;;;8.07;7.03;;;;;;;-0.44;100.00;99834.25;15300608;19;20023;-84
2023/01/22 20:20:57;;;;;;;7.13;6.38;;;;;;;-0.45;100.00;99834.28;15299492;19;20014;-82
2023/01/22 20:26:24;;;;;;;7.72;6.93;;;;;;;-0.43;100.00;99838.63;15299689;19;20010;-83
2023/01/22 20:31:55;;;;;;;6.95;6.25;;;;;;;-0.34;100.00;99848.00;15298308;19;20022;-82
2023/01/22 20:37:20;;;;;;;7.38;6.55;;;;;;;-0.36;100.00;99849.88;15302737;19;20459;-82
2023/01/22 20:42:45;;;;;;;6.40;5.80;;;;;;;-0.42;100.00;99837.72;15295882;19;20011;-83
2023/01/22 20:48:14;;;;;;;8.23;7.40;;;;;;;-0.44;100.00;99836.91;15309875;19;20026;-80
2023/01/22 20:53:40;;;;;;;6.82;6.13;;;;;;;-0.41;100.00;99854.44;15358278;19;20043;-81
2023/01/22 20:59:11;;;;;;;7.00;6.40;;;;;;;-0.41;100.00;99854.44;15286070;19;20014;-81
2023/01/22 21:04:39;;;;;;;7.22;6.50;;;;;;;-0.37;100.00;99851.63;15298468;19;20085;-80
2023/01/22 21:10:03;;;;;;;6.65;6.05;;;;;;;-0.35;100.00;99848.91;15303655;19;20056;-80
2023/01/22 21:15:28;;;;;;;6.40;5.80;;;;;;;-0.39;100.00;99848.16;15303838;19;20567;-82
2023/01/22 21:21:02;;;;;;;7.30;6.60;;;;;;;-0.42;100.00;99850.06;15289047;19;20022;-83
2023/01/22 21:26:31;;;;;;;6.60;6.00;;;;;;;-0.43;100.00;99859.81;15293738;19;20082;-81
2023/01/22 21:31:57;;;;;;;6.47;5.82;;;;;;;-0.40;100.00;99864.13;15282638;19;20010;-80
2023/01/22 21:37:25;;;;;;;6.40;5.80;;;;;;;-0.43;100.00;99867.75;15286525;19;20020;-82
2023/01/22 21:48:28;;;;;;;6.85;6.18;;;;;;;-0.37;100.00;99870.16;15278222;19;20405;-79
2023/01/22 21:53:56;;;;;;;6.47;5.82;;;;;;;-0.37;100.00;99875.47;15293915;19;20943;-80
2023/01/22 21:59:21;;;;;;;6.88;6.18;;;;;;;-0.38;100.00;99880.84;15294652;19;20369;-82
2023/01/22 22:04:46;;;;;;;6.30;5.70;;;;;;;-0.39;100.00;99882.59;15290134;19;20106;-81
2023/01/22 22:10:15;;;;;;;6.65;5.95;;;;;;;-0.44;100.00;99892.50;15294869;19;20022;-81
2023/01/22 22:15:41;;;;;;;6.72;6.13;;;;;;;-0.46;100.00;99902.28;15287022;19;20018;-81
2023/01/22 22:21:08;;;;;;;7.60;6.90;;;;;;;-0.46;100.00;99904.94;15275338;19;20010;-81
2023/01/22 22:26:35;;;;;;;7.28;6.50;;;;;;;-0.48;100.00;99910.28;15290305;19;20051;-82
2023/01/22 22:32:01;;;;;;;6.97;6.32;;;;;;;-0.48;100.00;99917.34;15279694;19;20017;-82
2023/01/22 22:37:25;;;;;;;6.78;6.07;;;;;;;-0.50;100.00;99905.94;15288938;19;20074;-82
2023/01/22 22:42:53;;;;;;;6.43;5.82;;;;;;;-0.50;100.00;99921.84;15281406;19;20018;-81
2023/01/22 22:48:18;;;;;;;6.72;6.03;;;;;;;-0.52;100.00;99916.59;15279870;19;20042;-82
2023/01/22 22:53:44;;;;;;;7.07;6.38;;;;;;;-0.51;100.00;99918.34;15279268;19;20015;-82
2023/01/22 22:59:13;;;;;;;7.70;6.90;;;;;;;-0.52;100.00;99921.03;15299194;19;20015;-80
2023/01/22 23:04:38;;;;;;;7.57;6.78;;;;;;;-0.52;100.00;99924.56;15334965;19;19998;-81
2023/01/22 23:10:02;;;;;;;8.20;7.40;;;;;;;-0.52;100.00;99924.56;15332800;19;20023;-82
2023/01/22 23:15:36;;;;;;;8.50;7.60;;;;;;;-0.55;100.00;99931.75;15323987;19;20031;-81
2023/01/22 23:21:05;;;;;;;8.80;7.80;;;;;;;-0.53;100.00;99940.50;15321420;19;20018;-80
2023/01/22 23:26:31;;;;;;;8.85;7.95;;;;;;;-0.56;100.00;99932.66;15302662;19;20444;-82
2023/01/22 23:32:00;;;;;;;9.05;8.10;;;;;;;-0.59;100.00;99933.63;15308379;19;20080;-81
2023/01/22 23:37:25;;;;;;;11.45;8.60;;;;;;;-0.58;100.00;99947.72;15315100;19;20014;-82
2023/01/22 23:42:49;;;;;;;9.55;8.55;;;;;;;-0.59;100.00;99940.69;15311516;19;20015;-82
2023/01/22 23:48:17;;;;;;;12.38;9.48;;;;;;;-0.59;100.00;99951.28;15307267;19;20461;-81
2023/01/22 23:53:43;;;;;;;11.35;9.30;;;;;;;-0.60;100.00;99950.44;15314118;19;20018;-82
2023/01/22 23:59:09;;;;;;;12.50;10.00;;;;;;;-0.61;100.00;99964.59;15302567;19;20014;-80
